createdAt,value
2019-02-23T00:00:18.241Z,36.80
2019-02-23T00:01:18.369Z,36.80
2019-02-23T00:02:18.531Z,37.20
2019-02-23T00:03:18.644Z,37.50
2019-02-23T00:04:18.768Z,36.70
2019-02-23T00:05:18.886Z,37.00
2019-02-23T00:06:29.257Z,36.20
2019-02-23T00:07:19.170Z,34.60
2019-02-23T00:08:19.272Z,35.90
2019-02-23T00:09:19.401Z,35.90
2019-02-23T00:10:19.521Z,35.30
2019-02-23T00:11:19.648Z,35.60
2019-02-23T00:12:19.779Z,36.20
2019-02-23T00:13:19.902Z,34.70
2019-02-23T00:14:20.033Z,34.60
2019-02-23T00:15:20.153Z,34.90
2019-02-23T00:16:20.281Z,35.50
2019-02-23T00:17:20.404Z,35.10
2019-02-23T00:18:20.529Z,33.70
2019-02-23T00:19:24.966Z,34.00
2019-02-23T00:20:20.779Z,34.50
2019-02-23T00:21:20.906Z,34.00
2019-02-23T00:22:21.039Z,33.60
2019-02-23T00:23:21.160Z,34.10
2019-02-23T00:24:21.282Z,33.20
2019-02-23T00:25:21.416Z,34.30
2019-02-23T00:26:21.528Z,32.90
2019-02-23T00:27:21.667Z,33.00
2019-02-23T00:28:21.777Z,33.90
2019-02-23T00:29:21.923Z,33.40
2019-02-23T00:30:22.055Z,33.30
2019-02-23T00:31:22.160Z,32.80
2019-02-23T00:32:22.286Z,34.10
2019-02-23T00:33:22.406Z,33.10
2019-02-23T00:34:22.530Z,32.10
2019-02-23T00:35:22.658Z,33.20
2019-02-23T00:36:22.779Z,32.30
2019-02-23T00:37:22.909Z,32.50
2019-02-23T00:38:23.034Z,32.70
2019-02-23T00:39:23.168Z,33.40
2019-02-23T00:40:23.279Z,32.40
2019-02-23T00:41:23.402Z,32.30
2019-02-23T00:42:23.533Z,32.00
2019-02-23T00:43:23.660Z,33.10
2019-02-23T00:44:23.783Z,31.70
2019-02-23T00:45:23.908Z,32.00
2019-02-23T00:46:24.034Z,33.10
2019-02-23T00:47:24.158Z,32.90
2019-02-23T00:48:24.294Z,32.00
2019-02-23T00:49:35.591Z,32.70
2019-02-23T00:50:24.547Z,33.50
2019-02-23T00:51:24.672Z,32.10
2019-02-23T00:52:24.801Z,31.90
2019-02-23T00:53:24.929Z,34.10
2019-02-23T00:54:25.058Z,32.60
2019-02-23T00:55:25.169Z,32.60
2019-02-23T00:56:25.307Z,31.90
2019-02-23T00:57:25.420Z,32.70
2019-02-23T00:58:25.560Z,34.00
2019-02-23T00:59:25.783Z,33.70
2019-02-23T01:00:25.801Z,32.70
2019-02-23T01:01:25.927Z,34.50
2019-02-23T01:02:26.060Z,34.20
2019-02-23T01:03:26.180Z,32.40
2019-02-23T01:04:26.307Z,33.10
2019-02-23T01:05:26.471Z,34.00
2019-02-23T01:06:26.593Z,34.00
2019-02-23T01:07:26.762Z,33.00
2019-02-23T01:08:26.879Z,33.50
2019-02-23T01:09:26.998Z,33.80
2019-02-23T01:10:27.136Z,34.30
2019-02-23T01:11:27.276Z,34.30
2019-02-23T01:12:27.400Z,34.50
2019-02-23T01:13:27.524Z,34.30
2019-02-23T01:14:27.646Z,33.60
2019-02-23T01:15:27.779Z,34.00
2019-02-23T01:16:27.915Z,32.50
2019-02-23T01:17:28.033Z,33.30
2019-02-23T01:18:28.151Z,33.80
2019-02-23T01:19:28.284Z,34.50
2019-02-23T01:20:28.418Z,35.10
2019-02-23T01:21:28.531Z,34.10
2019-02-23T01:22:28.655Z,34.30
2019-02-23T01:23:28.790Z,34.30
2019-02-23T01:24:28.980Z,33.60
2019-02-23T01:25:28.974Z,34.80
2019-02-23T01:26:29.108Z,33.70
2019-02-23T01:27:29.229Z,35.20
2019-02-23T01:28:29.483Z,35.60
2019-02-23T01:29:29.482Z,35.20
2019-02-23T01:30:29.612Z,36.00
2019-02-23T01:31:29.735Z,35.00
2019-02-23T01:32:29.862Z,36.00
2019-02-23T01:33:29.980Z,35.20
2019-02-23T01:34:30.128Z,36.20
2019-02-23T01:35:30.258Z,36.10
2019-02-23T01:36:30.373Z,36.50
2019-02-23T01:37:30.514Z,37.60
2019-02-23T01:38:30.642Z,36.10
2019-02-23T01:39:30.769Z,37.00
2019-02-23T01:40:30.886Z,37.00
2019-02-23T01:41:31.002Z,35.20
2019-02-23T01:42:31.126Z,36.50
2019-02-23T01:43:31.257Z,36.70
2019-02-23T01:44:31.364Z,36.80
2019-02-23T01:45:41.865Z,37.60
2019-02-23T01:46:31.625Z,35.90
2019-02-23T01:47:31.759Z,36.20
2019-02-23T01:48:31.947Z,37.90
2019-02-23T01:49:31.996Z,38.20
2019-02-23T01:50:32.125Z,38.40
2019-02-23T01:51:32.242Z,38.10
2019-02-23T01:52:32.363Z,37.10
2019-02-23T01:53:32.502Z,35.70
2019-02-23T01:54:32.643Z,37.00
2019-02-23T01:55:32.767Z,37.30
2019-02-23T01:56:32.902Z,36.30
2019-02-23T01:57:33.026Z,37.30
2019-02-23T01:58:33.161Z,36.60
2019-02-23T01:59:33.287Z,37.20
2019-02-23T02:00:33.411Z,36.90
2019-02-23T02:01:33.540Z,37.00
2019-02-23T02:02:33.661Z,36.90
2019-02-23T02:03:33.784Z,36.60
2019-02-23T02:04:33.905Z,37.70
2019-02-23T02:05:34.034Z,37.50
2019-02-23T02:06:34.168Z,38.30
2019-02-23T02:07:34.293Z,38.20
2019-02-23T02:08:34.421Z,39.60
2019-02-23T02:09:34.568Z,38.10
2019-02-23T02:10:34.690Z,38.00
2019-02-23T02:11:34.820Z,37.00
2019-02-23T02:12:34.939Z,37.60
2019-02-23T02:13:35.087Z,37.30
2019-02-23T02:14:35.201Z,37.70
2019-02-23T02:15:35.333Z,37.80
2019-02-23T02:16:35.449Z,38.30
2019-02-23T02:17:35.582Z,37.10
2019-02-23T02:18:35.705Z,37.50
2019-02-23T02:19:35.830Z,37.20
2019-02-23T02:20:35.957Z,37.70
2019-02-23T02:21:36.071Z,37.40
2019-02-23T02:22:36.245Z,37.50
2019-02-23T02:23:36.369Z,37.10
2019-02-23T02:24:36.515Z,37.30
2019-02-23T02:25:36.617Z,37.00
2019-02-23T02:26:36.753Z,37.10
2019-02-23T02:27:36.938Z,37.00
2019-02-23T02:28:36.986Z,37.10
2019-02-23T02:29:37.114Z,37.80
2019-02-23T02:30:37.259Z,38.30
2019-02-23T02:31:37.363Z,37.80
2019-02-23T02:32:37.489Z,38.20
2019-02-23T02:33:37.607Z,38.20
2019-02-23T02:34:37.735Z,37.90
2019-02-23T02:35:37.854Z,37.20
2019-02-23T02:36:37.981Z,37.60
2019-02-23T02:37:38.221Z,38.30
2019-02-23T02:38:38.246Z,39.80
2019-02-23T02:39:38.356Z,38.80
2019-02-23T02:40:38.484Z,38.80
2019-02-23T02:41:38.607Z,39.60
2019-02-23T02:42:38.730Z,39.30
2019-02-23T02:43:38.859Z,40.90
2019-02-23T02:44:38.986Z,40.90
2019-02-23T02:45:39.112Z,40.40
2019-02-23T02:46:39.235Z,40.80
2019-02-23T02:47:39.487Z,42.00
2019-02-23T02:48:39.535Z,41.60
2019-02-23T02:49:39.659Z,41.90
2019-02-23T02:50:39.795Z,40.90
2019-02-23T02:51:39.919Z,40.10
2019-02-23T02:52:40.043Z,39.60
2019-02-23T02:53:40.163Z,40.40
2019-02-23T02:54:40.294Z,39.60
2019-02-23T02:55:40.425Z,39.00
2019-02-23T02:56:40.547Z,38.80
2019-02-23T02:57:40.671Z,39.80
2019-02-23T02:58:40.797Z,40.20
2019-02-23T02:59:40.919Z,40.90
2019-02-23T03:00:41.077Z,41.00
2019-02-23T03:01:41.188Z,42.70
2019-02-23T03:02:41.320Z,43.20
2019-02-23T03:03:41.442Z,41.40
2019-02-23T03:04:41.568Z,41.70
2019-02-23T03:05:41.708Z,40.00
2019-02-23T03:06:41.826Z,39.80
2019-02-23T03:07:41.952Z,38.30
2019-02-23T03:08:42.073Z,35.90
2019-02-23T03:09:42.206Z,37.00
2019-02-23T03:10:42.325Z,35.50
2019-02-23T03:11:42.467Z,36.20
2019-02-23T03:12:42.574Z,38.80
2019-02-23T03:13:42.746Z,35.80
2019-02-23T03:14:42.854Z,36.50
2019-02-23T03:15:42.969Z,36.10
2019-02-23T03:16:43.090Z,37.20
2019-02-23T03:17:43.211Z,37.20
2019-02-23T03:18:43.342Z,37.10
2019-02-23T03:19:43.460Z,38.30
2019-02-23T03:20:43.611Z,37.40
2019-02-23T03:21:43.730Z,38.60
2019-02-23T03:22:43.866Z,37.00
2019-02-23T03:23:43.979Z,39.70
2019-02-23T03:24:44.105Z,39.00
2019-02-23T03:25:44.232Z,37.50
2019-02-23T03:26:44.357Z,40.10
2019-02-23T03:27:44.569Z,39.80
2019-02-23T03:28:44.644Z,38.10
2019-02-23T03:29:44.778Z,37.60
2019-02-23T03:30:44.894Z,37.40
2019-02-23T03:31:45.051Z,38.40
2019-02-23T03:32:45.173Z,40.60
2019-02-23T03:33:45.287Z,39.50
2019-02-23T03:34:45.410Z,39.80
2019-02-23T03:35:45.568Z,40.70
2019-02-23T03:36:45.680Z,40.80
2019-02-23T03:37:45.805Z,40.00
2019-02-23T03:38:45.927Z,39.60
2019-02-23T03:39:46.054Z,40.60
2019-02-23T03:40:46.182Z,39.10
2019-02-23T03:41:46.304Z,39.80
2019-02-23T03:42:46.434Z,39.80
2019-02-23T03:43:46.551Z,42.00
2019-02-23T03:44:46.707Z,41.00
2019-02-23T03:45:46.834Z,40.90
2019-02-23T03:46:46.956Z,41.90
2019-02-23T03:47:47.084Z,40.90
2019-02-23T03:48:47.226Z,41.10
2019-02-23T03:49:47.354Z,40.50
2019-02-23T03:50:49.458Z,41.50
2019-02-23T03:51:47.616Z,42.00
2019-02-23T03:52:47.733Z,42.10
2019-02-23T03:53:47.861Z,41.20
2019-02-23T03:54:47.979Z,41.10
2019-02-23T03:55:48.174Z,43.50
2019-02-23T03:56:48.227Z,42.30
2019-02-23T03:57:48.350Z,41.50
2019-02-23T03:58:48.494Z,43.50
2019-02-23T03:59:48.605Z,41.60
2019-02-23T04:00:48.727Z,42.50
2019-02-23T04:01:48.851Z,41.00
2019-02-23T04:02:48.976Z,41.00
2019-02-23T04:03:49.136Z,41.60
2019-02-23T04:04:49.269Z,41.30
2019-02-23T04:05:49.393Z,41.60
2019-02-23T04:06:49.587Z,43.10
2019-02-23T04:07:49.700Z,44.30
2019-02-23T04:08:49.824Z,42.10
2019-02-23T04:09:49.943Z,42.70
2019-02-23T04:10:50.059Z,43.20
2019-02-23T04:11:50.214Z,44.00
2019-02-23T04:12:50.334Z,43.20
2019-02-23T04:13:50.462Z,44.40
2019-02-23T04:14:50.586Z,43.40
2019-02-23T04:15:50.725Z,45.60
2019-02-23T04:16:50.829Z,46.70
2019-02-23T04:17:50.952Z,47.40
2019-02-23T04:18:51.103Z,46.80
2019-02-23T04:19:51.225Z,47.90
2019-02-23T04:21:01.279Z,45.80
2019-02-23T04:21:51.489Z,47.00
2019-02-23T04:22:51.601Z,45.10
2019-02-23T04:23:51.728Z,45.90
2019-02-23T04:24:51.857Z,43.90
2019-02-23T04:25:51.973Z,44.70
2019-02-23T04:26:52.105Z,45.70
2019-02-23T04:27:52.224Z,45.40
2019-02-23T04:28:52.360Z,46.80
2019-02-23T04:29:52.504Z,43.80
2019-02-23T04:30:52.632Z,45.80
2019-02-23T04:31:52.760Z,45.10
2019-02-23T04:32:52.892Z,44.80
2019-02-23T04:33:53.020Z,45.90
2019-02-23T04:34:53.140Z,44.90
2019-02-23T04:35:53.329Z,43.90
2019-02-23T04:36:53.494Z,44.20
2019-02-23T04:37:53.600Z,45.00
2019-02-23T04:38:53.726Z,45.20
2019-02-23T04:39:53.864Z,43.80
2019-02-23T04:40:53.994Z,44.70
2019-02-23T04:41:54.117Z,45.00
2019-02-23T04:42:54.266Z,45.20
2019-02-23T04:43:54.390Z,48.80
2019-02-23T04:44:54.516Z,48.50
2019-02-23T04:45:54.640Z,50.20
2019-02-23T04:46:54.765Z,50.80
2019-02-23T04:47:54.891Z,49.30
2019-02-23T04:48:55.013Z,48.50
2019-02-23T04:49:55.135Z,49.60
2019-02-23T04:50:55.504Z,48.30
2019-02-23T04:51:55.395Z,50.50
2019-02-23T04:52:55.518Z,47.60
2019-02-23T04:53:55.650Z,49.30
2019-02-23T04:54:55.763Z,46.90
2019-02-23T04:55:55.891Z,48.00
2019-02-23T04:56:56.024Z,48.30
2019-02-23T04:57:56.142Z,49.90
2019-02-23T04:58:56.266Z,47.00
2019-02-23T04:59:56.418Z,48.50
2019-02-23T05:00:56.531Z,47.40
2019-02-23T05:01:56.660Z,47.30
2019-02-23T05:02:56.784Z,46.20
2019-02-23T05:03:56.965Z,45.80
2019-02-23T05:04:57.070Z,48.30
2019-02-23T05:05:57.192Z,45.30
2019-02-23T05:06:57.321Z,48.90
2019-02-23T05:07:57.468Z,47.20
2019-02-23T05:08:57.595Z,48.20
2019-02-23T05:09:57.716Z,46.30
2019-02-23T05:10:57.840Z,48.20
2019-02-23T05:11:57.987Z,48.80
2019-02-23T05:12:58.116Z,45.00
2019-02-23T05:13:58.245Z,44.60
2019-02-23T05:14:58.366Z,49.50
2019-02-23T05:15:58.497Z,45.40
2019-02-23T05:16:58.627Z,45.20
2019-02-23T05:17:58.753Z,45.00
2019-02-23T05:18:58.884Z,45.00
2019-02-23T05:19:59.036Z,46.30
2019-02-23T05:20:59.151Z,46.00
2019-02-23T05:21:59.275Z,45.50
2019-02-23T05:22:59.402Z,45.30
2019-02-23T05:23:59.545Z,45.00
2019-02-23T05:24:59.682Z,46.10
2019-02-23T05:25:59.794Z,47.80
2019-02-23T05:26:59.933Z,43.40
2019-02-23T05:28:00.065Z,46.00
2019-02-23T05:29:00.180Z,46.90
2019-02-23T05:30:00.305Z,47.40
2019-02-23T05:31:00.454Z,45.10
2019-02-23T05:32:00.575Z,44.50
2019-02-23T05:33:00.699Z,46.00
2019-02-23T05:34:00.822Z,46.30
2019-02-23T05:35:00.986Z,46.50
2019-02-23T05:36:01.103Z,46.20
2019-02-23T05:37:01.228Z,46.80
2019-02-23T05:38:01.359Z,46.50
2019-02-23T05:39:01.490Z,44.30
2019-02-23T05:40:01.607Z,46.40
2019-02-23T05:41:01.730Z,47.50
2019-02-23T05:42:01.856Z,45.30
2019-02-23T05:43:01.979Z,46.50
2019-02-23T05:44:02.099Z,45.30
2019-02-23T05:45:02.229Z,44.60
2019-02-23T05:46:02.372Z,48.40
2019-02-23T05:47:02.533Z,48.30
2019-02-23T05:48:02.643Z,48.30
2019-02-23T05:49:02.767Z,47.40
2019-02-23T05:50:02.896Z,45.40
2019-02-23T05:51:03.058Z,45.90
2019-02-23T05:52:03.167Z,47.90
2019-02-23T05:53:03.290Z,47.90
2019-02-23T05:54:03.452Z,48.40
2019-02-23T05:55:03.548Z,46.80
2019-02-23T05:56:03.678Z,47.00
2019-02-23T05:57:03.813Z,47.00
2019-02-23T05:58:03.922Z,47.50
2019-02-23T05:59:04.037Z,46.80
2019-02-23T06:00:04.161Z,46.80
2019-02-23T06:01:04.292Z,46.60
2019-02-23T06:02:04.431Z,45.40
2019-02-23T06:03:04.551Z,48.60
2019-02-23T06:04:04.676Z,46.20
2019-02-23T06:05:04.795Z,47.40
2019-02-23T06:06:04.935Z,46.80
2019-02-23T06:07:05.061Z,48.40
2019-02-23T06:08:05.188Z,46.60
2019-02-23T06:09:05.304Z,47.30
2019-02-23T06:10:05.465Z,46.60
2019-02-23T06:11:05.601Z,46.70
2019-02-23T06:12:05.829Z,45.70
2019-02-23T06:13:05.836Z,46.20
2019-02-23T06:14:05.979Z,45.60
2019-02-23T06:15:06.093Z,46.90
2019-02-23T06:16:06.222Z,46.70
2019-02-23T06:17:06.347Z,46.40
2019-02-23T06:18:06.491Z,46.80
2019-02-23T06:19:06.625Z,44.40
2019-02-23T06:20:06.739Z,45.70
2019-02-23T06:21:06.861Z,46.30
2019-02-23T06:22:07.003Z,46.60
2019-02-23T06:23:07.130Z,45.70
2019-02-23T06:24:07.283Z,45.60
2019-02-23T06:25:07.408Z,46.40
2019-02-23T06:26:07.514Z,45.50
2019-02-23T06:27:07.719Z,46.00
2019-02-23T06:28:07.790Z,45.10
2019-02-23T06:29:07.908Z,46.60
2019-02-23T06:30:08.031Z,47.20
2019-02-23T06:31:08.155Z,44.70
2019-02-23T06:32:08.296Z,44.80
2019-02-23T06:33:08.416Z,45.20
2019-02-23T06:34:16.189Z,44.30
2019-02-23T06:35:08.676Z,44.60
2019-02-23T06:36:08.800Z,44.80
2019-02-23T06:37:08.921Z,45.80
2019-02-23T06:38:09.038Z,45.50
2019-02-23T06:39:09.161Z,44.90
2019-02-23T06:40:09.305Z,42.70
2019-02-23T06:41:09.424Z,43.50
2019-02-23T06:42:09.544Z,43.60
2019-02-23T06:43:09.660Z,45.80
2019-02-23T06:44:09.813Z,45.40
2019-02-23T06:45:09.935Z,44.70
2019-02-23T06:46:10.051Z,44.40
2019-02-23T06:47:10.181Z,46.60
2019-02-23T06:48:10.377Z,46.80
2019-02-23T06:49:10.468Z,47.00
2019-02-23T06:50:10.615Z,46.80
2019-02-23T06:51:10.729Z,46.50
2019-02-23T06:52:10.901Z,45.90
2019-02-23T06:53:10.996Z,46.30
2019-02-23T06:54:11.125Z,46.50
2019-02-23T06:55:11.275Z,45.20
2019-02-23T06:56:11.403Z,46.70
2019-02-23T06:57:11.534Z,45.80
2019-02-23T06:58:11.676Z,44.20
2019-02-23T06:59:11.793Z,44.10
2019-02-23T07:00:11.930Z,45.90
2019-02-23T07:01:12.046Z,45.70
2019-02-23T07:02:12.263Z,46.60
2019-02-23T07:03:12.327Z,43.80
2019-02-23T07:04:12.443Z,43.50
2019-02-23T07:05:12.581Z,45.90
2019-02-23T07:06:12.704Z,45.00
2019-02-23T07:07:12.820Z,45.10
2019-02-23T07:08:12.943Z,43.70
2019-02-23T07:09:13.065Z,47.30
2019-02-23T07:10:13.200Z,45.10
2019-02-23T07:11:13.323Z,45.90
2019-02-23T07:12:13.440Z,44.40
2019-02-23T07:13:13.575Z,46.60
2019-02-23T07:14:13.700Z,48.90
2019-02-23T07:15:13.915Z,48.50
2019-02-23T07:16:13.918Z,49.00
2019-02-23T07:17:14.036Z,47.00
2019-02-23T07:18:14.176Z,49.60
2019-02-23T07:19:14.288Z,47.70
2019-02-23T07:20:17.499Z,49.00
2019-02-23T07:22:15.742Z,47.80
2019-02-23T07:23:14.732Z,47.00
2019-02-23T07:24:14.859Z,45.70
2019-02-23T07:25:15.051Z,46.40
2019-02-23T07:26:15.134Z,46.50
2019-02-23T07:27:15.356Z,46.30
2019-02-23T07:28:15.414Z,49.00
2019-02-23T07:29:15.546Z,46.80
2019-02-23T07:30:15.691Z,47.70
2019-02-23T07:31:15.809Z,47.50
2019-02-23T07:32:15.927Z,45.60
2019-02-23T07:33:18.646Z,45.50
2019-02-23T07:34:16.206Z,45.40
2019-02-23T07:35:16.330Z,42.90
2019-02-23T07:36:16.448Z,41.80
2019-02-23T07:37:16.570Z,42.70
2019-02-23T07:38:16.699Z,42.30
2019-02-23T07:39:16.822Z,43.70
2019-02-23T07:40:16.944Z,42.30
2019-02-23T07:41:17.088Z,44.30
2019-02-23T07:42:17.211Z,44.70
2019-02-23T07:43:17.349Z,44.90
2019-02-23T07:44:17.471Z,45.20
2019-02-23T07:45:17.634Z,45.00
2019-02-23T07:46:17.712Z,46.50
2019-02-23T07:47:17.821Z,46.70
2019-02-23T07:48:17.968Z,46.60
2019-02-23T07:49:18.085Z,50.30
2019-02-23T07:50:18.206Z,47.00
2019-02-23T07:51:18.338Z,47.40
2019-02-23T07:52:26.035Z,46.40
2019-02-23T07:53:18.587Z,45.40
2019-02-23T07:54:18.712Z,44.90
2019-02-23T07:55:18.838Z,44.70
2019-02-23T07:56:18.957Z,44.90
2019-02-23T07:57:19.094Z,44.10
2019-02-23T07:58:19.220Z,44.30
2019-02-23T07:59:19.359Z,43.80
2019-02-23T08:00:19.469Z,44.30
2019-02-23T08:01:19.586Z,45.40
2019-02-23T08:02:19.717Z,44.40
2019-02-23T08:03:19.842Z,46.60
2019-02-23T08:04:19.965Z,45.00
2019-02-23T08:05:20.105Z,44.80
2019-02-23T08:06:20.217Z,44.20
2019-02-23T08:07:20.347Z,43.70
2019-02-23T08:08:20.471Z,43.80
2019-02-23T08:09:20.600Z,43.00
2019-02-23T08:10:20.737Z,41.90
2019-02-23T08:11:20.863Z,43.00
2019-02-23T08:12:21.246Z,41.10
2019-02-23T08:13:21.147Z,40.60
2019-02-23T08:14:21.272Z,49.00
2019-02-23T08:15:21.397Z,42.40
2019-02-23T08:16:21.522Z,43.70
2019-02-23T08:17:21.654Z,41.30
2019-02-23T08:18:21.772Z,41.00
2019-02-23T08:19:21.940Z,47.30
2019-02-23T08:20:22.021Z,44.40
2019-02-23T08:21:22.153Z,42.40
2019-02-23T08:22:22.276Z,40.30
2019-02-23T08:23:22.408Z,39.00
2019-02-23T08:24:22.525Z,42.50
2019-02-23T08:25:22.659Z,42.50
2019-02-23T08:26:22.876Z,42.90
2019-02-23T08:27:22.876Z,41.60
2019-02-23T08:28:23.044Z,39.60
2019-02-23T08:29:23.154Z,42.50
2019-02-23T08:30:23.278Z,42.40
2019-02-23T08:31:23.413Z,42.00
2019-02-23T08:32:23.590Z,41.20
2019-02-23T08:33:23.694Z,42.70
2019-02-23T08:34:23.832Z,41.60
2019-02-23T08:35:23.982Z,39.40
2019-02-23T08:36:24.102Z,40.00
2019-02-23T08:37:24.227Z,41.50
2019-02-23T08:38:24.349Z,40.40
2019-02-23T08:39:24.478Z,38.50
2019-02-23T08:40:24.602Z,38.60
2019-02-23T08:41:24.728Z,39.20
2019-02-23T08:42:24.856Z,35.90
2019-02-23T08:43:24.984Z,36.00
2019-02-23T08:44:25.121Z,39.80
2019-02-23T08:45:25.258Z,34.10
2019-02-23T08:46:25.395Z,34.70
2019-02-23T08:47:25.515Z,34.20
2019-02-23T08:48:25.641Z,32.60
2019-02-23T08:49:25.834Z,32.50
2019-02-23T08:50:25.917Z,32.10
2019-02-23T08:51:26.043Z,33.10
2019-02-23T08:52:26.165Z,33.30
2019-02-23T08:53:26.300Z,30.00
2019-02-23T08:54:26.433Z,33.50
2019-02-23T08:55:26.576Z,31.10
2019-02-23T08:56:26.698Z,29.10
2019-02-23T08:57:26.818Z,30.00
2019-02-23T08:58:26.941Z,27.90
2019-02-23T08:59:27.116Z,30.50
2019-02-23T09:00:27.239Z,30.70
2019-02-23T09:01:27.372Z,29.90
2019-02-23T09:02:27.498Z,29.20
2019-02-23T09:03:27.662Z,27.50
2019-02-23T09:04:27.796Z,29.60
2019-02-23T09:05:27.928Z,27.10
2019-02-23T09:06:28.046Z,27.00
2019-02-23T09:07:28.204Z,26.70
2019-02-23T09:08:29.084Z,26.30
2019-02-23T09:09:28.501Z,28.90
2019-02-23T09:10:28.666Z,27.60
2019-02-23T09:11:28.779Z,27.90
2019-02-23T09:12:28.913Z,27.70
2019-02-23T09:13:29.052Z,25.10
2019-02-23T09:14:29.178Z,23.40
2019-02-23T09:15:29.316Z,24.00
2019-02-23T09:16:29.440Z,24.90
2019-02-23T09:17:29.589Z,23.40
2019-02-23T09:18:29.714Z,23.50
2019-02-23T09:19:31.199Z,21.80
2019-02-23T09:20:29.991Z,22.90
2019-02-23T09:21:30.127Z,25.30
2019-02-23T09:22:30.255Z,31.40
2019-02-23T09:23:30.391Z,24.20
2019-02-23T09:24:30.508Z,24.70
2019-02-23T09:25:30.725Z,24.40
2019-02-23T09:26:36.559Z,25.80
2019-02-23T09:27:30.830Z,26.40
2019-02-23T09:28:30.956Z,26.40
2019-02-23T09:29:31.102Z,26.30
2019-02-23T09:30:31.210Z,24.90
2019-02-23T09:31:31.337Z,25.50
2019-02-23T09:32:31.472Z,25.70
2019-02-23T09:33:31.610Z,25.50
2019-02-23T09:34:31.732Z,25.70
2019-02-23T09:35:31.963Z,24.80
2019-02-23T09:36:31.978Z,25.40
2019-02-23T09:37:32.106Z,24.90
2019-02-23T09:38:32.350Z,24.90
2019-02-23T09:39:32.369Z,24.40
2019-02-23T09:40:32.738Z,24.90
2019-02-23T09:41:32.619Z,25.50
2019-02-23T09:42:32.768Z,25.30
2019-02-23T09:43:32.997Z,33.70
2019-02-23T09:44:33.159Z,32.40
2019-02-23T09:45:33.170Z,24.10
2019-02-23T09:46:33.298Z,23.70
2019-02-23T09:47:33.439Z,24.70
2019-02-23T09:48:33.567Z,24.70
2019-02-23T09:49:33.688Z,33.10
2019-02-23T09:50:33.824Z,21.80
2019-02-23T09:51:34.001Z,26.20
2019-02-23T09:55:18.943Z,24.60
2019-02-23T09:56:19.079Z,22.80
2019-02-23T09:57:19.200Z,22.70
2019-02-23T09:58:19.327Z,23.10
2019-02-23T09:59:19.453Z,22.60
2019-02-23T10:00:19.590Z,22.80
2019-02-23T10:01:19.717Z,22.50
2019-02-23T10:02:19.845Z,21.30
2019-02-23T10:03:19.967Z,22.70
2019-02-23T10:04:20.090Z,20.30
2019-02-23T10:05:20.215Z,23.70
2019-02-23T10:06:20.344Z,30.70
2019-02-23T10:07:20.476Z,19.70
2019-02-23T10:08:20.623Z,37.60
2019-02-23T10:09:20.725Z,27.80
2019-02-23T10:10:20.854Z,30.10
2019-02-23T10:11:20.997Z,24.00
2019-02-23T10:12:21.126Z,36.60
2019-02-23T10:13:21.282Z,25.30
2019-02-23T10:14:21.956Z,18.10
2019-02-23T10:15:21.466Z,20.70
2019-02-23T10:16:21.597Z,20.10
2019-02-23T10:17:21.727Z,19.20
2019-02-23T10:18:21.867Z,19.20
2019-02-23T10:19:21.998Z,17.60
2019-02-23T10:20:22.137Z,18.20
2019-02-23T10:21:22.255Z,17.50
2019-02-23T10:22:22.376Z,17.60
2019-02-23T10:23:23.055Z,18.70
2019-02-23T10:24:22.655Z,20.20
2019-02-23T10:25:22.798Z,16.90
2019-02-23T10:26:22.923Z,17.70
2019-02-23T10:27:23.065Z,18.00
2019-02-23T10:28:23.177Z,20.10
2019-02-23T10:29:23.309Z,17.50
2019-02-23T10:30:23.438Z,17.10
2019-02-23T10:31:23.577Z,20.40
2019-02-23T10:32:23.702Z,21.00
2019-02-23T10:33:23.829Z,19.00
2019-02-23T10:34:23.948Z,17.90
2019-02-23T10:35:24.220Z,18.10
2019-02-23T10:36:24.282Z,16.60
2019-02-23T10:37:24.372Z,20.20
2019-02-23T10:38:24.487Z,18.50
2019-02-23T10:39:24.625Z,18.40
2019-02-23T10:40:24.742Z,15.90
2019-02-23T10:41:24.872Z,16.40
2019-02-23T10:42:25.001Z,16.80
2019-02-23T10:43:25.133Z,16.30
2019-02-23T10:44:25.269Z,19.30
2019-02-23T10:45:25.383Z,14.40
2019-02-23T10:46:25.786Z,15.30
2019-02-23T10:47:25.693Z,19.50
2019-02-23T10:48:29.731Z,21.50
2019-02-23T10:49:27.382Z,17.50
2019-02-23T10:50:26.160Z,17.40
2019-02-23T10:51:26.302Z,19.70
2019-02-23T10:52:26.427Z,16.80
2019-02-23T10:53:32.760Z,16.40
2019-02-23T10:54:26.684Z,15.10
2019-02-23T10:55:26.842Z,15.90
2019-02-23T10:56:26.983Z,15.60
2019-02-23T10:57:27.109Z,13.60
2019-02-23T10:58:27.232Z,17.10
2019-02-23T10:59:27.411Z,14.60
2019-02-23T11:00:29.723Z,17.40
2019-02-23T11:01:28.668Z,15.80
2019-02-23T11:02:27.811Z,14.90
2019-02-23T11:03:27.938Z,16.40
2019-02-23T11:04:28.074Z,15.10
2019-02-23T11:05:28.218Z,14.40
2019-02-23T11:06:28.353Z,12.80
2019-02-23T11:07:28.571Z,12.50
2019-02-23T11:08:28.672Z,14.60
2019-02-23T11:09:28.685Z,12.30
2019-02-23T11:10:28.807Z,12.70
2019-02-23T11:11:30.665Z,12.40
2019-02-23T11:12:31.293Z,14.30
2019-02-23T11:13:30.453Z,14.30
2019-02-23T11:14:29.352Z,13.10
2019-02-23T11:15:31.584Z,12.50
2019-02-23T11:16:29.611Z,12.30
2019-02-23T11:17:29.745Z,12.90
2019-02-23T11:18:29.892Z,13.40
2019-02-23T11:19:30.026Z,12.10
2019-02-23T11:20:30.160Z,13.20
2019-02-23T11:21:30.275Z,13.20
2019-02-23T11:22:30.415Z,13.60
2019-02-23T11:23:30.557Z,12.80
2019-02-23T11:24:30.695Z,13.10
2019-02-23T11:25:30.829Z,12.50
2019-02-23T11:26:30.986Z,12.50
2019-02-23T11:27:31.106Z,13.00
2019-02-23T11:28:31.246Z,21.00
2019-02-23T11:29:31.377Z,15.80
2019-02-23T11:30:31.501Z,16.40
2019-02-23T11:31:31.639Z,15.80
2019-02-23T11:32:31.775Z,16.20
2019-02-23T11:33:31.920Z,13.60
2019-02-23T11:34:32.070Z,15.40
2019-02-23T11:35:32.202Z,17.50
2019-02-23T11:36:32.338Z,12.50
2019-02-23T11:37:32.476Z,10.90
2019-02-23T11:38:32.618Z,21.70
2019-02-23T11:39:32.756Z,14.20
2019-02-23T11:40:32.905Z,11.60
2019-02-23T11:41:33.034Z,11.90
2019-02-23T11:42:33.175Z,13.60
2019-02-23T11:43:33.310Z,18.30
2019-02-23T11:44:33.429Z,14.90
2019-02-23T11:45:33.565Z,13.40
2019-02-23T11:46:33.701Z,14.90
2019-02-23T11:47:33.829Z,14.90
2019-02-23T11:48:33.978Z,13.30
2019-02-23T11:49:34.118Z,11.90
2019-02-23T11:50:34.258Z,11.90
2019-02-23T11:51:34.374Z,10.90
2019-02-23T11:52:34.520Z,10.80
2019-02-23T11:53:34.650Z,11.50
2019-02-23T11:54:34.783Z,10.90
2019-02-23T11:55:34.932Z,10.90
2019-02-23T11:56:35.064Z,12.60
2019-02-23T11:57:35.209Z,10.80
2019-02-23T11:58:35.342Z,11.10
2019-02-23T11:59:35.484Z,10.50
2019-02-23T12:00:35.617Z,11.00
2019-02-23T12:01:35.765Z,12.70
2019-02-23T12:02:35.912Z,10.50
2019-02-23T12:03:36.049Z,12.10
2019-02-23T12:04:36.211Z,14.00
2019-02-23T12:05:36.360Z,12.50
2019-02-23T12:06:36.501Z,14.70
2019-02-23T12:07:36.645Z,13.90
2019-02-23T12:08:36.780Z,14.50
2019-02-23T12:09:36.924Z,12.30
2019-02-23T12:10:37.055Z,12.00
2019-02-23T12:11:37.198Z,11.60
2019-02-23T12:12:37.336Z,11.70
2019-02-23T12:13:37.479Z,11.00
2019-02-23T12:14:37.699Z,11.60
2019-02-23T12:15:37.770Z,11.20
2019-02-23T12:16:37.920Z,11.10
2019-02-23T12:17:38.049Z,10.60
2019-02-23T12:18:38.187Z,12.10
2019-02-23T12:19:38.327Z,16.40
2019-02-23T12:20:38.461Z,14.60
2019-02-23T12:21:38.610Z,14.70
2019-02-23T12:22:38.753Z,16.80
2019-02-23T12:23:38.919Z,15.40
2019-02-23T12:24:39.045Z,14.30
2019-02-23T12:25:39.203Z,13.90
2019-02-23T12:26:39.338Z,11.30
2019-02-23T12:27:39.477Z,10.50
2019-02-23T12:28:39.614Z,12.50
2019-02-23T12:29:39.754Z,10.30
2019-02-23T12:30:39.909Z,10.60
2019-02-23T12:31:40.053Z,10.30
2019-02-23T12:32:40.174Z,11.60
2019-02-23T12:33:40.327Z,10.20
2019-02-23T12:34:40.456Z,10.30
2019-02-23T12:35:40.594Z,9.60
2019-02-23T12:36:40.730Z,27.50
2019-02-23T12:37:40.874Z,9.30
2019-02-23T12:38:41.019Z,9.10
2019-02-23T12:39:41.136Z,8.20
2019-02-23T12:40:41.294Z,8.20
2019-02-23T12:41:41.441Z,9.00
2019-02-23T12:42:41.593Z,9.80
2019-02-23T12:43:41.759Z,10.30
2019-02-23T12:44:41.868Z,9.10
2019-02-23T12:45:42.015Z,9.20
2019-02-23T12:46:42.145Z,9.40
2019-02-23T12:47:42.307Z,10.00
2019-02-23T12:48:42.448Z,9.80
2019-02-23T12:49:42.587Z,9.70
2019-02-23T12:50:42.729Z,9.60
2019-02-23T12:51:42.869Z,10.10
2019-02-23T12:52:43.010Z,10.10
2019-02-23T12:53:43.159Z,10.00
2019-02-23T12:54:43.296Z,10.30
2019-02-23T12:55:43.440Z,9.70
2019-02-23T12:56:43.581Z,9.20
2019-02-23T12:57:43.714Z,9.50
2019-02-23T12:58:43.856Z,9.60